createdAt,value
2022-12-05T00:00:03.062Z,13.60
2022-12-05T00:02:33.148Z,15.17
2022-12-05T00:05:05.623Z,14.17
2022-12-05T00:07:34.555Z,15.53
2022-12-05T00:10:05.235Z,14.20
2022-12-05T00:12:34.636Z,14.80
2022-12-05T00:15:03.062Z,13.77
2022-12-05T00:17:33.534Z,14.77
2022-12-05T00:20:02.173Z,14.10
2022-12-05T00:22:30.553Z,13.87
2022-12-05T00:24:59.041Z,14.63
2022-12-05T00:27:28.388Z,14.77
2022-12-05T00:29:59.316Z,14.97
2022-12-05T00:32:32.181Z,13.80
2022-12-05T00:35:00.222Z,15.60
2022-12-05T00:37:28.249Z,15.10
2022-12-05T00:39:58.528Z,14.67
2022-12-05T00:42:28.067Z,14.23
2022-12-05T00:44:56.506Z,14.97
2022-12-05T00:47:24.923Z,14.70
2022-12-05T00:49:52.968Z,14.67
2022-12-05T00:52:20.964Z,13.77
2022-12-05T00:54:49.751Z,13.90
2022-12-05T00:57:17.756Z,15.10
2022-12-05T00:59:49.858Z,14.20
2022-12-05T01:02:19.255Z,14.70
2022-12-05T01:04:47.257Z,15.17
2022-12-05T01:07:15.364Z,14.70
2022-12-05T01:09:43.526Z,14.53
2022-12-05T01:12:11.765Z,14.50
2022-12-05T01:14:41.819Z,14.30
2022-12-05T01:17:12.210Z,14.30
2022-12-05T01:19:40.420Z,14.90
2022-12-05T01:22:08.440Z,16.40
2022-12-05T01:24:37.567Z,14.80
2022-12-05T01:27:05.602Z,14.60
2022-12-05T01:29:34.602Z,14.33
2022-12-05T01:32:04.758Z,15.63
2022-12-05T01:34:34.564Z,15.07
2022-12-05T01:37:02.622Z,14.60
2022-12-05T01:39:30.649Z,14.40
2022-12-05T01:41:59.440Z,13.57
2022-12-05T01:45:02.967Z,15.87
2022-12-05T01:47:36.951Z,15.13
2022-12-05T01:50:08.240Z,14.70
2022-12-05T01:52:37.390Z,15.00
2022-12-05T01:55:11.376Z,14.30
2022-12-05T01:57:42.331Z,14.20
2022-12-05T02:00:15.802Z,15.00
2022-12-05T02:02:50.588Z,12.40
2022-12-05T02:05:30.160Z,14.27
2022-12-05T02:08:00.635Z,12.97
2022-12-05T02:10:31.520Z,13.43
2022-12-05T02:13:12.831Z,13.93
2022-12-05T02:15:46.538Z,13.90
2022-12-05T02:18:30.041Z,13.73
2022-12-05T02:21:29.059Z,13.30
2022-12-05T02:24:25.529Z,13.50
2022-12-05T02:27:14.767Z,12.97
2022-12-05T02:29:58.254Z,13.67
2022-12-05T02:32:39.578Z,14.47
2022-12-05T02:35:17.960Z,12.67
2022-12-05T02:37:53.373Z,13.60
2022-12-05T02:40:28.027Z,13.10
2022-12-05T02:43:01.047Z,13.97
2022-12-05T02:45:37.094Z,14.93
2022-12-05T02:48:09.521Z,14.53
2022-12-05T02:50:41.758Z,15.60
2022-12-05T02:53:13.463Z,14.33
2022-12-05T02:55:43.560Z,13.43
2022-12-05T02:58:16.800Z,15.00
2022-12-05T03:00:50.817Z,14.10
2022-12-05T03:03:23.320Z,15.40
2022-12-05T03:06:01.525Z,14.00
2022-12-05T03:08:34.145Z,14.73
2022-12-05T03:11:04.859Z,13.53
2022-12-05T03:13:36.737Z,13.20
2022-12-05T03:16:14.335Z,14.63
2022-12-05T03:18:49.072Z,15.23
2022-12-05T03:21:27.015Z,13.33
2022-12-05T03:23:58.790Z,14.50
2022-12-05T03:26:39.073Z,14.37
2022-12-05T03:29:26.463Z,14.07
2022-12-05T03:32:04.349Z,13.07
2022-12-05T03:34:44.730Z,15.40
2022-12-05T03:37:26.143Z,13.40
2022-12-05T03:40:05.686Z,15.83
2022-12-05T03:42:37.278Z,14.63
2022-12-05T03:45:12.154Z,14.00
2022-12-05T03:47:49.710Z,14.23
2022-12-05T03:50:24.294Z,13.90
2022-12-05T03:53:19.300Z,15.47
2022-12-05T03:55:50.282Z,15.43
2022-12-05T03:58:23.205Z,13.27
2022-12-05T04:00:57.663Z,14.20
2022-12-05T04:03:46.224Z,15.07
2022-12-05T04:06:20.302Z,14.63
2022-12-05T04:08:54.098Z,15.93
2022-12-05T04:11:26.176Z,14.53
2022-12-05T04:14:00.431Z,14.50
2022-12-05T04:16:50.343Z,14.00
2022-12-05T04:19:26.622Z,14.57
2022-12-05T04:21:56.669Z,13.70
2022-12-05T04:24:46.315Z,14.53
2022-12-05T04:27:29.171Z,13.77
2022-12-05T04:30:04.926Z,13.47
2022-12-05T04:32:41.286Z,13.00
2022-12-05T04:35:16.393Z,13.40
2022-12-05T04:37:49.551Z,13.60
2022-12-05T04:40:24.229Z,12.37
2022-12-05T04:42:56.110Z,13.50
2022-12-05T04:45:26.928Z,11.67
2022-12-05T04:47:57.745Z,13.67
2022-12-05T04:50:31.741Z,12.90
2022-12-05T04:53:02.793Z,13.03
2022-12-05T04:55:35.191Z,13.00
2022-12-05T04:58:08.437Z,14.37
2022-12-05T05:00:43.707Z,12.60
2022-12-05T05:03:16.645Z,12.00
2022-12-05T05:05:50.413Z,12.03
2022-12-05T05:08:20.914Z,13.80
2022-12-05T05:11:00.264Z,14.20
2022-12-05T05:13:28.762Z,14.10
2022-12-05T05:15:57.412Z,11.83
2022-12-05T05:18:26.044Z,13.27
2022-12-05T05:20:55.394Z,12.77
2022-12-05T05:23:27.330Z,12.80
2022-12-05T05:25:56.138Z,12.83
2022-12-05T05:28:24.986Z,12.17
2022-12-05T05:30:53.030Z,12.03
2022-12-05T05:33:23.442Z,13.00
2022-12-05T05:35:56.071Z,12.60
2022-12-05T05:38:24.124Z,12.17
2022-12-05T05:40:52.125Z,11.40
2022-12-05T05:43:20.195Z,12.57
2022-12-05T05:45:48.815Z,11.20
2022-12-05T05:48:17.055Z,11.70
2022-12-05T05:50:45.165Z,10.00
2022-12-05T05:53:14.840Z,12.10
2022-12-05T05:55:43.570Z,11.97
2022-12-05T05:58:11.907Z,12.23
2022-12-05T06:00:39.910Z,11.90
2022-12-05T06:03:08.818Z,11.80
2022-12-05T06:05:37.325Z,12.20
2022-12-05T06:08:06.248Z,12.17
2022-12-05T06:10:36.034Z,11.47
2022-12-05T06:13:04.053Z,11.43
2022-12-05T06:15:32.220Z,13.23
2022-12-05T06:18:00.383Z,10.87
2022-12-05T06:20:28.629Z,11.60
2022-12-05T06:22:57.421Z,11.90
2022-12-05T06:25:25.412Z,12.17
2022-12-05T06:27:55.218Z,11.50
2022-12-05T06:30:24.211Z,10.07
2022-12-05T06:32:54.773Z,11.17
2022-12-05T06:35:23.177Z,10.60
2022-12-05T06:37:53.282Z,10.50
2022-12-05T06:40:22.023Z,9.97
2022-12-05T06:42:49.996Z,10.77
2022-12-05T06:45:19.579Z,12.27
2022-12-05T06:47:48.445Z,10.70
2022-12-05T06:50:16.593Z,11.60
2022-12-05T06:52:44.693Z,9.60
2022-12-05T06:55:15.188Z,10.70
2022-12-05T06:57:43.287Z,10.43
2022-12-05T07:00:30.524Z,10.83
2022-12-05T07:03:01.575Z,10.23
2022-12-05T07:05:30.202Z,8.67
2022-12-05T07:08:00.602Z,8.60
2022-12-05T07:10:29.284Z,9.17
2022-12-05T07:12:57.771Z,9.00
2022-12-05T07:15:25.802Z,10.07
2022-12-05T07:17:54.231Z,8.67
2022-12-05T07:20:43.131Z,9.00
2022-12-05T07:23:15.306Z,8.13
2022-12-05T07:25:44.312Z,10.17
2022-12-05T07:28:12.322Z,10.03
2022-12-05T07:30:40.310Z,8.80
2022-12-05T07:33:11.661Z,8.00
2022-12-05T07:35:41.237Z,8.80
2022-12-05T07:38:09.979Z,9.60
2022-12-05T07:40:39.105Z,9.43
2022-12-05T07:43:07.142Z,9.23
2022-12-05T07:45:36.698Z,9.10
2022-12-05T07:48:05.972Z,9.60
2022-12-05T07:50:35.323Z,8.50
2022-12-05T07:53:05.561Z,10.00
2022-12-05T07:55:36.196Z,9.10
2022-12-05T07:58:04.829Z,9.23
2022-12-05T08:00:33.406Z,8.93
2022-12-05T08:03:03.584Z,9.10
2022-12-05T08:05:34.712Z,8.53
2022-12-05T08:08:04.309Z,9.50
2022-12-05T08:10:32.973Z,9.50
2022-12-05T08:13:01.152Z,9.57
2022-12-05T08:15:31.750Z,9.87
2022-12-05T08:18:00.505Z,8.90
2022-12-05T08:20:30.800Z,9.20
2022-12-05T08:22:59.496Z,8.80
2022-12-05T08:25:29.489Z,8.90
2022-12-05T08:27:59.979Z,8.37
2022-12-05T08:30:28.462Z,7.80
2022-12-05T08:32:56.924Z,8.57
2022-12-05T08:35:25.022Z,8.40
2022-12-05T08:37:53.080Z,8.50
2022-12-05T08:40:22.284Z,8.70
2022-12-05T08:42:51.630Z,8.07
2022-12-05T08:45:21.276Z,9.20
2022-12-05T08:47:50.263Z,8.40
2022-12-05T08:50:18.693Z,8.83
2022-12-05T08:52:47.286Z,9.00
2022-12-05T08:55:15.911Z,9.13
2022-12-05T08:57:44.121Z,8.87
2022-12-05T09:00:14.882Z,8.30
2022-12-05T09:02:45.549Z,8.87
2022-12-05T09:05:27.825Z,8.40
2022-12-05T09:07:59.557Z,9.43
2022-12-05T09:10:35.090Z,9.13
2022-12-05T09:13:03.716Z,9.70
2022-12-05T09:15:33.102Z,9.33
2022-12-05T09:18:01.667Z,9.30
2022-12-05T09:20:37.343Z,9.43
2022-12-05T09:23:05.398Z,10.07
2022-12-05T09:25:35.964Z,9.10
2022-12-05T09:28:04.099Z,9.20
2022-12-05T09:30:40.988Z,9.30
2022-12-05T09:33:09.856Z,8.03
2022-12-05T09:35:40.822Z,8.30
2022-12-05T09:38:09.032Z,10.03
2022-12-05T09:40:43.279Z,8.70
2022-12-05T09:43:19.853Z,9.07
2022-12-05T09:46:01.175Z,8.00
2022-12-05T09:48:30.193Z,8.60
2022-12-05T09:51:04.159Z,7.80
2022-12-05T09:53:35.364Z,9.57
2022-12-05T09:56:07.290Z,8.97
2022-12-05T09:58:52.663Z,9.07
2022-12-05T10:01:41.966Z,8.63
2022-12-05T10:04:28.160Z,7.97
2022-12-05T10:07:02.878Z,7.40
2022-12-05T10:09:44.806Z,9.13
2022-12-05T10:12:21.828Z,7.77
2022-12-05T10:14:56.209Z,8.77
2022-12-05T10:17:34.374Z,8.53
2022-12-05T10:20:06.535Z,7.50
2022-12-05T10:22:43.690Z,7.70
2022-12-05T10:25:15.640Z,8.60
2022-12-05T10:27:50.336Z,8.33
2022-12-05T10:30:20.527Z,8.50
2022-12-05T10:33:01.042Z,9.20
2022-12-05T10:35:35.679Z,8.73
2022-12-05T10:38:09.922Z,9.27
2022-12-05T10:40:42.208Z,10.70
2022-12-05T10:43:15.629Z,11.87
2022-12-05T10:45:46.060Z,11.50
2022-12-05T10:48:20.244Z,11.50
2022-12-05T10:50:52.272Z,11.50
2022-12-05T10:53:27.223Z,10.23
2022-12-05T10:56:28.822Z,11.70
2022-12-05T10:58:56.478Z,11.93
2022-12-05T11:01:27.203Z,10.47
2022-12-05T11:04:01.318Z,11.13
2022-12-05T11:06:34.747Z,11.13
2022-12-05T11:09:16.545Z,11.40
2022-12-05T11:12:01.272Z,10.27
2022-12-05T11:14:31.231Z,10.70
2022-12-05T11:17:03.266Z,9.83
2022-12-05T11:19:35.044Z,10.40
2022-12-05T11:22:07.027Z,9.63
2022-12-05T11:24:39.249Z,8.73
2022-12-05T11:27:21.766Z,9.83
2022-12-05T11:30:02.972Z,10.50
2022-12-05T11:32:34.550Z,9.27
2022-12-05T11:35:10.937Z,9.07
2022-12-05T11:37:45.026Z,9.47
2022-12-05T11:40:21.558Z,10.60
2022-12-05T11:43:10.966Z,9.23
2022-12-05T11:45:53.778Z,9.50
2022-12-05T11:48:37.579Z,8.63
2022-12-05T11:51:24.396Z,9.93
2022-12-05T11:57:35.713Z,9.13
2022-12-05T12:00:23.527Z,11.03
2022-12-05T12:03:20.393Z,9.70
2022-12-05T12:06:02.199Z,10.33
2022-12-05T12:08:43.949Z,11.40
2022-12-05T12:11:21.964Z,9.20
2022-12-05T12:14:00.433Z,9.83
2022-12-05T12:16:36.802Z,10.47
2022-12-05T12:19:31.657Z,9.73
2022-12-05T12:22:13.599Z,9.00
2022-12-05T12:25:01.567Z,10.43
2022-12-05T12:27:45.172Z,9.53
2022-12-05T12:30:18.566Z,9.83
2022-12-05T12:33:02.427Z,10.33
2022-12-05T12:35:48.581Z,9.33
2022-12-05T12:38:38.912Z,10.27
2022-12-05T12:41:14.917Z,9.70
2022-12-05T12:43:54.353Z,10.47
2022-12-05T12:46:41.125Z,11.07
2022-12-05T12:49:32.940Z,9.67
2022-12-05T12:52:04.482Z,8.73
2022-12-05T12:55:04.072Z,10.87
2022-12-05T12:58:01.549Z,10.60
2022-12-05T13:00:44.364Z,10.00
2022-12-05T13:03:18.123Z,9.00
2022-12-05T13:05:51.560Z,11.07
2022-12-05T13:08:25.136Z,9.40
2022-12-05T13:10:54.965Z,9.17
2022-12-05T13:13:33.482Z,9.10
2022-12-05T13:16:08.517Z,12.10
2022-12-05T13:18:37.034Z,10.27
2022-12-05T13:21:09.005Z,11.90
2022-12-05T13:23:46.515Z,10.63
2022-12-05T13:26:15.669Z,12.63
2022-12-05T13:28:53.715Z,11.00
2022-12-05T13:31:36.749Z,10.23
2022-12-05T13:34:05.121Z,10.70
2022-12-05T13:36:59.443Z,10.03
2022-12-05T13:39:45.714Z,9.93
2022-12-05T13:42:24.362Z,9.57
2022-12-05T13:44:58.670Z,10.80
2022-12-05T13:47:32.091Z,10.30
2022-12-05T13:50:10.437Z,10.33
2022-12-05T13:52:51.884Z,9.67
2022-12-05T13:55:35.328Z,8.40
2022-12-05T13:58:42.543Z,9.50
2022-12-05T14:01:55.439Z,10.70
2022-12-05T14:04:45.611Z,9.53
2022-12-05T14:07:34.103Z,8.80
2022-12-05T14:10:02.753Z,9.23
2022-12-05T14:12:44.954Z,8.53
2022-12-05T14:15:29.984Z,9.33
2022-12-05T14:18:06.094Z,8.87
2022-12-05T14:20:57.161Z,9.87
2022-12-05T14:24:05.930Z,8.43
2022-12-05T14:26:53.253Z,8.00
2022-12-05T14:29:45.317Z,9.00
2022-12-05T14:32:26.256Z,7.87
2022-12-05T14:35:06.477Z,7.40
2022-12-05T14:37:37.545Z,8.27
2022-12-05T14:40:21.473Z,8.63
2022-12-05T14:42:55.395Z,9.67
2022-12-05T14:45:31.349Z,7.97
2022-12-05T14:48:01.299Z,8.83
2022-12-05T14:50:43.307Z,7.83
2022-12-05T14:53:43.141Z,9.47
2022-12-05T14:56:19.453Z,9.87
2022-12-05T14:58:52.067Z,9.90
2022-12-05T15:01:32.802Z,9.63
2022-12-05T15:04:19.945Z,10.87
2022-12-05T15:06:54.696Z,9.80
2022-12-05T15:09:55.473Z,10.63
2022-12-05T15:12:29.217Z,11.07
2022-12-05T15:15:10.980Z,10.23
2022-12-05T15:17:45.953Z,11.40
2022-12-05T15:20:40.106Z,11.27
2022-12-05T15:23:45.015Z,14.40
2022-12-05T15:29:14.174Z,10.83
2022-12-05T15:31:47.126Z,10.67
2022-12-05T15:34:19.737Z,12.70
2022-12-05T15:36:51.995Z,9.30
2022-12-05T15:39:30.886Z,10.00
2022-12-05T15:42:01.372Z,8.87
2022-12-05T15:44:37.403Z,11.40
2022-12-05T15:47:06.325Z,8.47
2022-12-05T15:49:35.899Z,9.70
2022-12-05T15:52:17.686Z,8.60
2022-12-05T15:54:48.321Z,8.47
2022-12-05T15:57:20.185Z,11.47
2022-12-05T15:59:54.090Z,8.93
2022-12-05T16:02:26.521Z,8.90
2022-12-05T16:05:05.422Z,7.67
2022-12-05T16:07:36.696Z,8.07
2022-12-05T16:10:08.145Z,8.33
2022-12-05T16:12:41.225Z,7.60
2022-12-05T16:15:14.285Z,7.40
2022-12-05T16:17:46.585Z,8.10
2022-12-05T16:20:24.738Z,7.40
2022-12-05T16:22:54.933Z,8.40
2022-12-05T16:25:29.715Z,7.60
2022-12-05T16:28:00.162Z,8.70
2022-12-05T16:30:32.318Z,7.07
2022-12-05T16:33:03.651Z,9.77
2022-12-05T16:35:36.138Z,7.13
2022-12-05T16:38:13.307Z,6.93
2022-12-05T16:40:54.647Z,10.30
2022-12-05T16:43:27.108Z,9.77
2022-12-05T16:45:59.073Z,9.57
2022-12-05T16:48:28.532Z,9.57
2022-12-05T16:51:18.566Z,9.13
2022-12-05T16:53:49.159Z,10.60
2022-12-05T16:56:22.561Z,9.90
2022-12-05T16:58:53.165Z,10.57
2022-12-05T17:01:26.938Z,11.23
2022-12-05T17:04:03.835Z,11.60
2022-12-05T17:06:34.286Z,9.87
2022-12-05T17:09:02.349Z,9.53
2022-12-05T17:11:35.790Z,9.70
2022-12-05T17:14:04.650Z,7.60
2022-12-05T17:16:32.826Z,7.60
2022-12-05T17:19:01.140Z,8.10
2022-12-05T17:21:33.309Z,8.00
2022-12-05T17:24:01.960Z,7.57
2022-12-05T17:26:31.312Z,8.40
2022-12-05T17:29:02.342Z,10.20
2022-12-05T17:31:34.392Z,8.57
2022-12-05T17:34:02.729Z,8.93
2022-12-05T17:36:31.305Z,7.90
2022-12-05T17:39:00.490Z,8.73
2022-12-05T17:41:28.477Z,9.70
2022-12-05T17:43:58.387Z,9.57
2022-12-05T17:46:26.504Z,9.00
2022-12-05T17:48:55.551Z,8.10
2022-12-05T17:51:24.903Z,7.87
2022-12-05T17:53:54.404Z,7.87
2022-12-05T17:56:23.033Z,8.10
2022-12-05T17:58:51.617Z,8.30
2022-12-05T18:01:28.823Z,7.73
2022-12-05T18:03:57.875Z,7.80
2022-12-05T18:06:26.648Z,6.73
2022-12-05T18:09:02.642Z,8.00
2022-12-05T18:11:31.585Z,7.80
2022-12-05T18:14:00.017Z,7.20
2022-12-05T18:16:32.395Z,5.80
2022-12-05T18:19:09.222Z,5.80
2022-12-05T18:21:37.842Z,6.77
2022-12-05T18:24:08.464Z,6.33
2022-12-05T18:26:37.845Z,5.73
2022-12-05T18:29:06.011Z,7.27
2022-12-05T18:31:38.233Z,6.10
2022-12-05T18:34:06.398Z,5.87
2022-12-05T18:36:34.975Z,5.70
2022-12-05T18:39:03.038Z,7.17
2022-12-05T18:41:31.033Z,6.30
2022-12-05T18:43:59.504Z,6.50
2022-12-05T18:46:27.565Z,7.27
2022-12-05T18:49:03.468Z,6.73
2022-12-05T18:51:31.884Z,6.53
2022-12-05T18:54:00.504Z,6.23
2022-12-05T18:56:31.160Z,6.67
2022-12-05T18:59:02.912Z,6.60
2022-12-05T19:01:32.307Z,7.23
2022-12-05T19:04:03.470Z,5.90
2022-12-05T19:06:33.110Z,6.07
2022-12-05T19:09:10.955Z,6.50
2022-12-05T19:11:46.997Z,5.90
2022-12-05T19:14:18.907Z,6.07
2022-12-05T19:16:56.453Z,5.30
2022-12-05T19:19:30.412Z,5.97
2022-12-05T19:21:59.516Z,5.63
2022-12-05T19:24:27.713Z,6.20
2022-12-05T19:26:56.584Z,6.60
2022-12-05T19:29:24.557Z,6.73
2022-12-05T19:31:55.541Z,6.50
2022-12-05T19:34:24.845Z,7.20
2022-12-05T19:36:54.957Z,8.07
2022-12-05T19:39:27.108Z,7.30
2022-12-05T19:41:59.537Z,8.40
2022-12-05T19:44:29.480Z,6.30
2022-12-05T19:46:57.471Z,9.00
2022-12-05T19:49:44.470Z,6.13
2022-12-05T19:52:19.816Z,6.33
2022-12-05T19:54:50.289Z,6.83
2022-12-05T19:57:19.762Z,6.70
2022-12-05T19:59:49.554Z,6.50
2022-12-05T20:02:21.597Z,6.77
2022-12-05T20:04:49.828Z,7.70
2022-12-05T20:07:26.570Z,7.17
2022-12-05T20:09:54.591Z,6.80
2022-12-05T20:12:23.069Z,7.53
2022-12-05T20:14:51.318Z,8.57
2022-12-05T20:17:21.884Z,7.60
2022-12-05T20:19:49.890Z,8.50
2022-12-05T20:22:19.393Z,8.80
2022-12-05T20:24:47.759Z,8.60
2022-12-05T20:27:16.765Z,8.00
2022-12-05T20:29:45.542Z,8.10
2022-12-05T20:32:14.398Z,7.60
2022-12-05T20:34:42.635Z,9.33
2022-12-05T20:37:11.592Z,8.47
2022-12-05T20:39:41.400Z,9.33
2022-12-05T20:42:10.284Z,9.93
2022-12-05T20:44:39.045Z,9.20
2022-12-05T20:47:07.326Z,9.27
2022-12-05T20:49:35.313Z,10.00
2022-12-05T20:52:04.183Z,9.17
2022-12-05T20:54:33.582Z,8.73
2022-12-05T20:57:06.056Z,9.40
2022-12-05T20:59:34.249Z,9.47
2022-12-05T21:02:02.320Z,8.80
2022-12-05T21:04:31.458Z,9.40
2022-12-05T21:06:59.443Z,7.80
2022-12-05T21:09:29.858Z,8.13
2022-12-05T21:11:59.327Z,9.17
2022-12-05T21:14:28.938Z,8.20
2022-12-05T21:17:01.050Z,8.57
2022-12-05T21:19:36.538Z,6.87
2022-12-05T21:22:08.437Z,7.47
2022-12-05T21:24:36.587Z,8.20
2022-12-05T21:27:04.834Z,7.67
2022-12-05T21:29:37.316Z,7.60
2022-12-05T21:32:08.060Z,7.73
2022-12-05T21:34:36.856Z,7.60
2022-12-05T21:37:05.291Z,7.30
2022-12-05T21:39:33.281Z,7.07
2022-12-05T21:42:06.473Z,7.50
2022-12-05T21:44:36.259Z,6.23
2022-12-05T21:47:11.636Z,7.50
2022-12-05T21:49:40.762Z,5.90
2022-12-05T21:52:10.938Z,5.93
2022-12-05T21:54:39.010Z,6.40
2022-12-05T21:57:10.808Z,6.47
2022-12-05T21:59:40.300Z,7.10
2022-12-05T22:02:11.296Z,6.87
2022-12-05T22:04:39.743Z,7.67
2022-12-05T22:07:09.842Z,6.67
2022-12-05T22:09:47.677Z,6.83
2022-12-05T22:12:16.272Z,6.90
2022-12-05T22:14:48.035Z,6.50
2022-12-05T22:17:17.207Z,6.57
2022-12-05T22:19:45.338Z,7.10
2022-12-05T22:22:13.933Z,6.63
2022-12-05T22:24:42.369Z,6.97
2022-12-05T22:27:10.462Z,6.27
2022-12-05T22:29:38.481Z,6.80
2022-12-05T22:32:10.900Z,7.33
2022-12-05T22:34:39.305Z,7.57
2022-12-05T22:37:07.761Z,6.87
2022-12-05T22:39:36.772Z,7.03
2022-12-05T22:42:04.977Z,7.60
2022-12-05T22:44:34.024Z,5.77
2022-12-05T22:47:04.113Z,7.33
2022-12-05T22:49:33.950Z,6.97
2022-12-05T22:52:01.930Z,7.27
2022-12-05T22:54:30.517Z,6.63
2022-12-05T22:56:59.080Z,5.80
2022-12-05T22:59:27.111Z,7.50
2022-12-05T23:01:55.090Z,5.30
2022-12-05T23:04:24.751Z,5.73
2022-12-05T23:06:54.335Z,7.47
2022-12-05T23:09:22.928Z,6.37
2022-12-05T23:11:51.750Z,6.77
2022-12-05T23:14:19.914Z,5.97
2022-12-05T23:16:50.200Z,6.93
2022-12-05T23:19:18.862Z,8.63
2022-12-05T23:21:46.991Z,8.03
2022-12-05T23:24:17.408Z,7.80
2022-12-05T23:26:46.818Z,6.87
2022-12-05T23:29:15.599Z,7.20
2022-12-05T23:31:45.017Z,6.83
2022-12-05T23:34:13.084Z,6.30
2022-12-05T23:36:41.853Z,6.60
2022-12-05T23:39:12.814Z,6.47
2022-12-05T23:41:44.049Z,6.20
2022-12-05T23:44:13.025Z,5.33
2022-12-05T23:46:43.428Z,6.93
2022-12-05T23:49:11.616Z,7.03
2022-12-05T23:51:40.621Z,6.17
2022-12-05T23:54:19.026Z,6.20
2022-12-05T23:56:56.808Z,7.73
2022-12-05T23:59:28.670Z,7.90
